Airfield :







YOU CAN JOIN US ON...

 
LOGIN :

Register | Disclaimer

   EN    FR    IT 

 









Legend :    VFR   Marginal VFR   IFR   Intensive IFR   Very Intensive IFR
Visi :
Ceiling :
>= 8 km
>= 3000ft
5 to 8 km
1000 to 3000 ft
1500m to 5 km
500 to 1000 ft
800 to 1500m
200 to 500 ft
< 800m
< 200 ft
Symbols :   Thunderstorms  Fog  Heavy snow  Heavy precipitations  Wind > 20 kt






- Airport Elevation : 68 ft
- IATA code : YFC


CYFC - Fredericton

CURRENT METAR :
  • 090900Z AUTO 34007KT 9SM BKN055 OVC110 M10/M15 A2993 RMK SLP139

EXPIRED METARs :
  • 090800Z AUTO 01010KT 9SM OVC050 M09/M14 A2993 RMK SLP137
  • 090742Z AUTO 01009KT 9SM OVC055 M09/M13 A2992 RMK SLP135
  • 090700Z AUTO 35007KT 9SM -SN OVC048 M09/M12 A2992 RMK SLP136

TAF TAF CYFC
Valid from the 09 at 06:00 until the 09 at 18:00 UTC


090540Z 0906/0918 01008KT P6SM OVC060
TEMPO 0906/0910 2 1/2SM -SN BKN015 OVC025
FM091000 33010KT P6SM BKN025 OVC080 RMK FCST BASED ON AUTO OBS. NXT FCST BY 091200Z
CZQM FIR / North America



MET'MAP, your aeronautical weather chart ! - Copyright ORBIFLY December 2007 - Disclaimer

ORBIFLY MET'MAP TEAM :

Programming & Development : Alexandra Zaïnal
Concept & original design : Baudouin d'Aumeries
Assistance for programming : Marc-Olivier Méhu
Technical & hardware support : Manuel Goepfert

Contact : metmap@orbifly.com




SOURCES & CREDITS :

   NOAA